Time;durP1;ratioP1;P1;durP2;ratioP2;P2;SDS_P1;SDS_P2;PMS_P1;PMS_P2;Temp;Humidity;BMP_temperature;BMP_pressure;BME280_temperature;BME280_humidity;BME280_pressure;Samples;Min_cycle;Max_cycle;Signal;HPM_P1;HPM_P2
2021/08/27 00:00:50;;;;;;;;;;;;;;;;;;2066838;28;3961;-70
2021/08/27 00:01:50;;;;;;;;;;;;;;;;;;2070072;28;4045;-71
2021/08/27 00:02:51;;;;;;;;;;;;;;;;;;2075027;28;4301;-70
2021/08/27 00:03:51;;;;;;;;;;;;;;;;;;2079064;28;1959;-70
2021/08/27 00:04:55;;;;;;;;;;;;;;;;;;2079783;28;1276;-71
2021/08/27 00:05:55;;;;;;;;;;;;;;;;;;2078070;28;1646;-71
2021/08/27 00:06:56;;;;;;;;;;;;;;;;;;2076343;28;1359;-71
2021/08/27 00:07:57;;;;;;;;;;;;;;;;;;2079674;28;4181;-71
2021/08/27 00:08:58;;;;;;;;;;;;;;;;;;2081052;28;2391;-71
2021/08/27 00:09:59;;;;;;;;;;;;;;;;;;2078743;28;3506;-71
2021/08/27 00:11:00;;;;;;;;;;;;;;;;;;2077940;28;3686;-71
2021/08/27 00:12:00;;;;;;;;;;;;;;;;;;2078564;28;1141;-71
2021/08/27 00:13:01;;;;;;;;;;;;;;;;;;2080826;28;983;-71
2021/08/27 00:14:02;;;;;;;;;;;;;;;;;;2079728;28;3320;-71
2021/08/27 00:15:03;;;;;;;;;;;;;;;;;;2079898;28;1362;-71
2021/08/27 00:16:03;;;;;;;;;;;;;;;;;;2078119;28;1183;-71
2021/08/27 00:17:04;;;;;;;;;;;;;;;;;;2081706;28;1026;-71
2021/08/27 00:18:05;;;;;;;;;;;;;;;;;;2080173;28;3791;-70
2021/08/27 00:19:05;;;;;;;;;;;;;;;;;;2078313;28;3784;-71
2021/08/27 00:20:07;;;;;;;;;;;;;;;;;;2077798;28;3731;-71
2021/08/27 00:21:07;;;;;;;;;;;;;;;;;;2074102;28;1422;-71
2021/08/27 00:22:08;;;;;;;;;;;;;;;;;;2080240;28;3878;-71
2021/08/27 00:23:08;;;;;;;;;;;;;;;;;;2079613;28;1045;-70
2021/08/27 00:25:35;;;;;;;;;;;;;;;;;;2086615;27;3982;-71
2021/08/27 00:26:36;;;;;;;;;;;;;;;;;;2071512;28;3749;-70
2021/08/27 00:27:37;;;;;;;;;;;;;;;;;;2072654;28;4131;-71
2021/08/27 00:28:37;;;;;;;;;;;;;;;;;;2074170;28;3834;-71
2021/08/27 00:29:38;;;;;;;;;;;;;;;;;;2078774;28;1123;-70
2021/08/27 00:30:39;;;;;;;;;;;;;;;;;;2070550;28;3708;-71
2021/08/27 00:31:39;;;;;;;;;;;;;;;;;;2077889;28;1086;-70
2021/08/27 00:32:40;;;;;;;;;;;;;;;;;;2076982;28;1079;-71
2021/08/27 00:33:40;;;;;;;;;;;;;;;;;;2079780;28;1112;-71
2021/08/27 00:34:41;;;;;;;;;;;;;;;;;;2081405;28;3995;-71
2021/08/27 00:35:42;;;;;;;;;;;;;;;;;;2073450;28;3959;-71
2021/08/27 00:36:43;;;;;;;;;;;;;;;;;;2078908;28;4649;-71
2021/08/27 00:37:43;;;;;;;;;;;;;;;;;;2075829;28;3849;-71
2021/08/27 00:38:44;;;;;;;;;;;;;;;;;;2081552;28;1253;-71
2021/08/27 00:39:44;;;;;;;;;;;;;;;;;;2081144;28;3168;-70
2021/08/27 00:40:45;;;;;;;;;;;;;;;;;;2075320;28;3394;-70
2021/08/27 00:41:45;;;;;;;;;;;;;;;;;;2079680;28;1069;-70
2021/08/27 00:42:46;;;;;;;;;;;;;;;;;;2075815;28;1506;-70
2021/08/27 00:43:47;;;;;;;;;;;;;;;;;;2079770;28;4054;-71
2021/08/27 00:44:48;;;;;;;;;;;;;;;;;;2074885;28;4516;-71
2021/08/27 00:45:48;;;;;;;;;;;;;;;;;;2080850;28;4419;-70
2021/08/27 00:46:49;;;;;;;;;;;;;;;;;;2079313;28;4006;-71
2021/08/27 00:47:49;;;;;;;;;;;;;;;;;;2079269;28;4038;-70
2021/08/27 00:48:50;;;;;;;;;;;;;;;;;;2085866;28;1609;-71
2021/08/27 00:49:50;;;;;;;;;;;;;;;;;;2086797;28;1719;-70
2021/08/27 00:50:51;;;;;;;;;;;;;;;;;;2075121;28;4122;-70
2021/08/27 00:51:51;;;;;;;;;;;;;;;;;;2083540;28;1057;-71
2021/08/27 00:52:53;;;;;;;;;;;;;;;;;;2084113;28;1110;-70
2021/08/27 00:53:53;;;;;;;;;;;;;;;;;;2088752;28;3868;-71
2021/08/27 00:54:54;;;;;;;;;;;;;;;;;;2088100;28;4250;-71
2021/08/27 00:55:54;;;;;;;;;;;;;;;;;;2089832;28;1135;-70
2021/08/27 00:56:56;;;;;;;;;;;;;;;;;;2088832;28;3955;-70
2021/08/27 00:57:56;;;;;;;;;;;;;;;;;;2088621;28;4024;-70
2021/08/27 00:58:57;;;;;;;;;;;;;;;;;;2088176;28;4065;-71
2021/08/27 00:59:57;;;;;;;;;;;;;;;;;;2079121;28;4531;-70
2021/08/27 01:00:59;;;;;;;;;;;;;;;;;;2083240;28;4153;-71
2021/08/27 01:01:59;;;;;;;;;;;;;;;;;;2088677;28;1096;-71
2021/08/27 01:03:02;;;;;;;;;;;;;;;;;;2088441;28;1045;-71
2021/08/27 01:04:02;;;;;;;;;;;;;;;;;;2086444;28;4562;-71
2021/08/27 01:05:03;;;;;;;;;;;;;;;;;;2082630;28;4743;-70
2021/08/27 01:06:04;;;;;;;;;;;;;;;;;;2086882;28;4783;-71
2021/08/27 01:07:05;;;;;;;;;;;;;;;;;;2084734;28;4348;-71
2021/08/27 01:08:05;;;;;;;;;;;;;;;;;;2089319;28;4452;-71
2021/08/27 01:09:07;;;;;;;;;;;;;;;;;;2088580;28;3874;-70
2021/08/27 01:10:07;;;;;;;;;;;;;;;;;;2084850;28;4141;-71
2021/08/27 01:11:08;;;;;;;;;;;;;;;;;;2082734;28;3565;-71
2021/08/27 01:12:08;;;;;;;;;;;;;;;;;;2089943;28;2963;-71
2021/08/27 01:13:09;;;;;;;;;;;;;;;;;;2090242;28;1103;-71
2021/08/27 01:14:10;;;;;;;;;;;;;;;;;;2087804;28;3398;-70
2021/08/27 01:15:11;;;;;;;;;;;;;;;;;;2086126;28;1368;-71
2021/08/27 01:16:11;;;;;;;;;;;;;;;;;;2088151;28;4377;-70
2021/08/27 01:17:12;;;;;;;;;;;;;;;;;;2089422;28;4560;-71
2021/08/27 01:18:12;;;;;;;;;;;;;;;;;;2087088;28;4463;-70
2021/08/27 01:19:13;;;;;;;;;;;;;;;;;;2083725;28;3520;-71
2021/08/27 01:20:13;;;;;;;;;;;;;;;;;;2082336;28;4125;-70
2021/08/27 01:21:15;;;;;;;;;;;;;;;;;;2119458;22;4217;-69
2021/08/27 01:22:15;;;;;;;;;;;;;;;;;;2080753;28;1213;-69
2021/08/27 01:23:16;;;;;;;;;;;;;;;;;;2077753;28;1256;-69
2021/08/27 01:24:16;;;;;;;;;;;;;;;;;;2077073;28;4198;-70
2021/08/27 01:25:17;;;;;;;;;;;;;;;;;;2075832;28;3743;-69
2021/08/27 01:26:18;;;;;;;;;;;;;;;;;;2079055;28;2914;-68
2021/08/27 01:27:19;;;;;;;;;;;;;;;;;;2079400;28;3675;-69
2021/08/27 01:28:19;;;;;;;;;;;;;;;;;;2081419;28;1181;-69
2021/08/27 01:29:20;;;;;;;;;;;;;;;;;;2082924;28;1192;-69
2021/08/27 01:30:20;;;;;;;;;;;;;;;;;;2071953;28;4041;-69
2021/08/27 01:31:21;;;;;;;;;;;;;;;;;;2078362;28;1070;-68
2021/08/27 01:32:21;;;;;;;;;;;;;;;;;;2080506;28;2009;-68
2021/08/27 01:33:23;;;;;;;;;;;;;;;;;;2076032;28;1224;-69
2021/08/27 01:34:23;;;;;;;;;;;;;;;;;;2078983;28;3326;-69
2021/08/27 01:36:32;;;;;;;;;;;;;;;;;;2071160;28;1644;-70
2021/08/27 01:37:32;;;;;;;;;;;;;;;;;;2073331;28;4105;-71
2021/08/27 01:38:33;;;;;;;;;;;;;;;;;;2070108;28;3669;-71
2021/08/27 01:39:33;;;;;;;;;;;;;;;;;;2071057;28;3872;-71
2021/08/27 01:40:35;;;;;;;;;;;;;;;;;;2066175;28;3859;-71
2021/08/27 01:41:37;;;;;;;;;;;;;;;;;;2068211;28;1241;-68
2021/08/27 01:42:38;;;;;;;;;;;;;;;;;;2073599;28;4190;-69
2021/08/27 01:43:38;;;;;;;;;;;;;;;;;;2072270;28;3509;-69
2021/08/27 01:44:40;;;;;;;;;;;;;;;;;;2071246;28;3525;-68
2021/08/27 01:45:40;;;;;;;;;;;;;;;;;;2071112;28;3510;-69
2021/08/27 01:46:41;;;;;;;;;;;;;;;;;;2062323;28;2980;-68
2021/08/27 01:47:42;;;;;;;;;;;;;;;;;;2066655;28;3598;-67
2021/08/27 01:48:43;;;;;;;;;;;;;;;;;;2068989;28;1026;-68
2021/08/27 01:49:43;;;;;;;;;;;;;;;;;;2073826;28;1418;-67
2021/08/27 01:50:44;;;;;;;;;;;;;;;;;;2059697;28;4126;-68
2021/08/27 01:51:44;;;;;;;;;;;;;;;;;;2073446;28;3866;-69
2021/08/27 01:52:45;;;;;;;;;;;;;;;;;;2073558;28;4011;-68
2021/08/27 01:53:45;;;;;;;;;;;;;;;;;;2070365;28;1233;-69
2021/08/27 01:54:46;;;;;;;;;;;;;;;;;;2067663;28;2523;-68
2021/08/27 01:55:46;;;;;;;;;;;;;;;;;;2073478;28;3116;-67
2021/08/27 01:56:47;;;;;;;;;;;;;;;;;;2073642;28;3560;-68
2021/08/27 01:57:48;;;;;;;;;;;;;;;;;;2073794;28;3211;-68
2021/08/27 01:58:49;;;;;;;;;;;;;;;;;;2075984;28;1084;-68
2021/08/27 01:59:49;;;;;;;;;;;;;;;;;;2071124;28;1281;-67
2021/08/27 02:00:50;;;;;;;;;;;;;;;;;;2068584;28;3752;-67
2021/08/27 02:01:51;;;;;;;;;;;;;;;;;;2074884;28;1265;-69
2021/08/27 02:02:51;;;;;;;;;;;;;;;;;;2072025;28;1061;-68
2021/08/27 02:03:52;;;;;;;;;;;;;;;;;;2074119;28;1448;-68
2021/08/27 02:04:53;;;;;;;;;;;;;;;;;;2073435;28;1172;-68
2021/08/27 02:05:54;;;;;;;;;;;;;;;;;;2067484;28;3215;-67
2021/08/27 02:06:54;;;;;;;;;;;;;;;;;;2070430;28;2602;-69
2021/08/27 02:07:55;;;;;;;;;;;;;;;;;;2070480;28;4148;-69
2021/08/27 02:08:55;;;;;;;;;;;;;;;;;;2074245;28;3507;-67
2021/08/27 02:10:00;;;;;;;;;;;;;;;;;;2072305;28;3695;-67
2021/08/27 02:11:00;;;;;;;;;;;;;;;;;;2068414;28;3352;-71
2021/08/27 02:12:01;;;;;;;;;;;;;;;;;;2074701;28;3450;-71
2021/08/27 02:13:01;;;;;;;;;;;;;;;;;;2074567;28;3992;-71
2021/08/27 02:14:02;;;;;;;;;;;;;;;;;;2074589;28;1473;-71
2021/08/27 02:15:03;;;;;;;;;;;;;;;;;;2070965;28;3705;-71
2021/08/27 02:16:06;;;;;;;;;;;;;;;;;;2073816;28;3697;-71
2021/08/27 02:17:06;;;;;;;;;;;;;;;;;;2073564;28;3615;-71
2021/08/27 02:18:07;;;;;;;;;;;;;;;;;;2072206;28;1101;-71
2021/08/27 02:19:07;;;;;;;;;;;;;;;;;;2074265;28;3346;-71
2021/08/27 02:20:09;;;;;;;;;;;;;;;;;;2069660;28;4010;-71
2021/08/27 02:21:09;;;;;;;;;;;;;;;;;;2057882;28;3368;-71
2021/08/27 02:22:10;;;;;;;;;;;;;;;;;;2075015;28;1142;-71
2021/08/27 02:23:10;;;;;;;;;;;;;;;;;;2074413;28;1094;-69
2021/08/27 02:25:37;;;;;;;;;;;;;;;;;;2114735;27;3561;-68
2021/08/27 02:26:37;;;;;;;;;;;;;;;;;;2111790;27;1076;-67
2021/08/27 02:27:39;;;;;;;;;;;;;;;;;;2096392;27;4222;-67
2021/08/27 02:28:39;;;;;;;;;;;;;;;;;;2094390;28;2041;-66
2021/08/27 02:29:41;;;;;;;;;;;;;;;;;;2092508;28;3561;-67
2021/08/27 02:30:42;;;;;;;;;;;;;;;;;;2083156;28;4171;-69
2021/08/27 02:31:42;;;;;;;;;;;;;;;;;;2094221;28;1355;-68
2021/08/27 02:32:44;;;;;;;;;;;;;;;;;;2096652;28;4017;-69
2021/08/27 02:33:44;;;;;;;;;;;;;;;;;;2093343;28;1224;-68
2021/08/27 02:34:51;;;;;;;;;;;;;;;;;;2097298;28;3981;-66
2021/08/27 02:35:52;;;;;;;;;;;;;;;;;;2093689;28;4169;-69
2021/08/27 02:36:52;;;;;;;;;;;;;;;;;;2098009;28;2038;-68
2021/08/27 02:37:53;;;;;;;;;;;;;;;;;;2096316;28;2552;-68
2021/08/27 02:38:53;;;;;;;;;;;;;;;;;;2097881;28;4214;-68
2021/08/27 02:39:54;;;;;;;;;;;;;;;;;;2092559;28;4396;-69
2021/08/27 02:40:54;;;;;;;;;;;;;;;;;;2093720;28;3691;-68
2021/08/27 02:41:55;;;;;;;;;;;;;;;;;;2096411;28;4185;-67
2021/08/27 02:42:55;;;;;;;;;;;;;;;;;;2095883;28;4032;-68
2021/08/27 02:43:56;;;;;;;;;;;;;;;;;;2095517;28;3952;-67
2021/08/27 02:44:57;;;;;;;;;;;;;;;;;;2093478;28;4418;-67
2021/08/27 02:45:58;;;;;;;;;;;;;;;;;;2096197;28;4227;-67
2021/08/27 02:46:58;;;;;;;;;;;;;;;;;;2096662;28;4017;-67
2021/08/27 02:48:00;;;;;;;;;;;;;;;;;;2093994;28;3945;-67
2021/08/27 02:49:00;;;;;;;;;;;;;;;;;;2092914;28;4331;-68
2021/08/27 02:50:01;;;;;;;;;;;;;;;;;;2095430;28;3902;-67
2021/08/27 02:51:02;;;;;;;;;;;;;;;;;;2085585;28;4487;-67
2021/08/27 02:52:03;;;;;;;;;;;;;;;;;;2095181;28;4028;-68
2021/08/27 02:53:03;;;;;;;;;;;;;;;;;;2097388;28;3856;-68
2021/08/27 02:54:04;;;;;;;;;;;;;;;;;;2095808;28;3883;-67
2021/08/27 02:55:04;;;;;;;;;;;;;;;;;;2096828;28;1065;-67
2021/08/27 02:56:05;;;;;;;;;;;;;;;;;;2096076;28;3817;-68
2021/08/27 02:57:05;;;;;;;;;;;;;;;;;;2096875;28;4164;-68
2021/08/27 02:58:07;;;;;;;;;;;;;;;;;;2097618;28;4032;-68
2021/08/27 02:59:11;;;;;;;;;;;;;;;;;;2098877;28;4413;-67
2021/08/27 03:01:35;;;;;;;;;;;;;;;;;;2107692;27;4032;-67
2021/08/27 03:02:36;;;;;;;;;;;;;;;;;;2112151;27;4496;-67
2021/08/27 03:03:37;;;;;;;;;;;;;;;;;;2113653;27;1161;-68
2021/08/27 03:04:37;;;;;;;;;;;;;;;;;;2113103;27;3998;-68
2021/08/27 03:05:38;;;;;;;;;;;;;;;;;;2109177;27;3682;-68
2021/08/27 03:06:38;;;;;;;;;;;;;;;;;;2112886;27;4036;-67
2021/08/27 03:07:40;;;;;;;;;;;;;;;;;;2107253;27;3826;-67
2021/08/27 03:08:40;;;;;;;;;;;;;;;;;;2112911;27;4527;-68
2021/08/27 03:09:41;;;;;;;;;;;;;;;;;;2112254;27;4019;-67
2021/08/27 03:10:41;;;;;;;;;;;;;;;;;;2109739;27;3988;-68
2021/08/27 03:11:42;;;;;;;;;;;;;;;;;;2107306;27;4346;-67
2021/08/27 03:12:43;;;;;;;;;;;;;;;;;;2109178;27;4002;-67
2021/08/27 03:13:44;;;;;;;;;;;;;;;;;;2107928;27;4449;-68
2021/08/27 03:14:44;;;;;;;;;;;;;;;;;;2111071;27;1156;-69
2021/08/27 03:15:45;;;;;;;;;;;;;;;;;;2112834;27;4176;-68
2021/08/27 03:16:45;;;;;;;;;;;;;;;;;;2112825;27;2307;-67
2021/08/27 03:17:46;;;;;;;;;;;;;;;;;;2112905;27;4123;-68
2021/08/27 03:18:47;;;;;;;;;;;;;;;;;;2108067;27;4442;-68
2021/08/27 03:19:47;;;;;;;;;;;;;;;;;;2114548;27;1337;-67
2021/08/27 03:20:48;;;;;;;;;;;;;;;;;;2103094;27;4622;-68
2021/08/27 03:21:49;;;;;;;;;;;;;;;;;;2104267;27;3917;-67
2021/08/27 03:22:50;;;;;;;;;;;;;;;;;;2103874;27;1178;-67
2021/08/27 03:23:50;;;;;;;;;;;;;;;;;;2111319;27;2286;-69
2021/08/27 03:24:51;;;;;;;;;;;;;;;;;;2111620;27;1000;-69
2021/08/27 03:25:52;;;;;;;;;;;;;;;;;;2113045;27;1283;-67
2021/08/27 03:26:52;;;;;;;;;;;;;;;;;;2113477;27;1068;-69
2021/08/27 03:27:54;;;;;;;;;;;;;;;;;;2113153;27;1355;-69
2021/08/27 03:28:54;;;;;;;;;;;;;;;;;;2108225;27;2044;-68
2021/08/27 03:29:56;;;;;;;;;;;;;;;;;;2104091;27;4168;-67
2021/08/27 03:30:56;;;;;;;;;;;;;;;;;;2107445;27;3350;-67
2021/08/27 03:31:58;;;;;;;;;;;;;;;;;;2113078;27;1262;-67
2021/08/27 03:32:58;;;;;;;;;;;;;;;;;;2105695;27;1181;-67
2021/08/27 03:33:59;;;;;;;;;;;;;;;;;;2107354;27;4101;-67
2021/08/27 03:34:59;;;;;;;;;;;;;;;;;;2104133;27;2201;-67
2021/08/27 03:36:00;;;;;;;;;;;;;;;;;;2108860;27;3593;-68
2021/08/27 03:37:02;;;;;;;;;;;;;;;;;;2112393;27;1116;-68
2021/08/27 03:38:04;;;;;;;;;;;;;;;;;;2109756;27;1158;-67
2021/08/27 03:39:05;;;;;;;;;;;;;;;;;;2113003;27;3572;-67
2021/08/27 03:40:05;;;;;;;;;;;;;;;;;;2106834;27;3095;-67
2021/08/27 03:42:40;;;;;;;;;;;;;;;;;;2112558;27;4215;-68
2021/08/27 03:43:40;;;;;;;;;;;;;;;;;;2123504;27;1119;-66
2021/08/27 03:44:42;;;;;;;;;;;;;;;;;;2116667;27;4186;-68
2021/08/27 03:45:43;;;;;;;;;;;;;;;;;;2120500;27;1274;-67
2021/08/27 03:46:44;;;;;;;;;;;;;;;;;;2111332;27;1025;-67
2021/08/27 03:47:45;;;;;;;;;;;;;;;;;;2114232;27;2242;-67
2021/08/27 03:48:45;;;;;;;;;;;;;;;;;;2111921;27;3639;-69
2021/08/27 03:49:46;;;;;;;;;;;;;;;;;;2116897;27;2009;-67
2021/08/27 03:50:46;;;;;;;;;;;;;;;;;;2108809;27;3819;-69
2021/08/27 03:51:47;;;;;;;;;;;;;;;;;;2111483;27;1269;-69
2021/08/27 03:52:47;;;;;;;;;;;;;;;;;;2110008;27;1306;-67
2021/08/27 03:53:48;;;;;;;;;;;;;;;;;;2115878;27;1056;-67
2021/08/27 03:54:48;;;;;;;;;;;;;;;;;;2109798;27;3796;-69
2021/08/27 03:55:50;;;;;;;;;;;;;;;;;;2117291;27;1357;-66
2021/08/27 03:56:50;;;;;;;;;;;;;;;;;;2116822;27;1113;-68
2021/08/27 03:57:51;;;;;;;;;;;;;;;;;;2117738;27;1218;-68
2021/08/27 03:58:52;;;;;;;;;;;;;;;;;;2115473;27;2704;-67
2021/08/27 03:59:53;;;;;;;;;;;;;;;;;;2105005;27;3722;-68
2021/08/27 04:00:53;;;;;;;;;;;;;;;;;;2110781;27;4469;-67
2021/08/27 04:01:55;;;;;;;;;;;;;;;;;;2116647;27;1906;-67
2021/08/27 04:02:56;;;;;;;;;;;;;;;;;;2115558;27;4133;-68
2021/08/27 04:03:56;;;;;;;;;;;;;;;;;;2114371;27;1111;-67
2021/08/27 04:04:58;;;;;;;;;;;;;;;;;;2111996;27;1122;-68
2021/08/27 04:05:58;;;;;;;;;;;;;;;;;;2113397;27;1227;-69
2021/08/27 04:06:59;;;;;;;;;;;;;;;;;;2116746;27;1558;-69
2021/08/27 04:07:59;;;;;;;;;;;;;;;;;;2117307;27;1364;-67
2021/08/27 04:09:00;;;;;;;;;;;;;;;;;;2112164;27;4216;-69
2021/08/27 04:10:00;;;;;;;;;;;;;;;;;;2113147;27;4188;-68
2021/08/27 04:11:01;;;;;;;;;;;;;;;;;;2112680;27;4483;-68
2021/08/27 04:12:02;;;;;;;;;;;;;;;;;;2111198;27;1215;-67
2021/08/27 04:13:03;;;;;;;;;;;;;;;;;;2113427;27;1118;-67
2021/08/27 04:14:04;;;;;;;;;;;;;;;;;;2116817;27;1156;-69
2021/08/27 04:15:04;;;;;;;;;;;;;;;;;;2115095;27;1078;-67
2021/08/27 04:16:05;;;;;;;;;;;;;;;;;;2117168;27;1215;-68
2021/08/27 04:17:06;;;;;;;;;;;;;;;;;;2118302;27;1033;-69
2021/08/27 04:18:07;;;;;;;;;;;;;;;;;;2117463;27;1040;-69
2021/08/27 04:19:07;;;;;;;;;;;;;;;;;;2112674;27;2212;-66
2021/08/27 04:20:09;;;;;;;;;;;;;;;;;;2105626;27;4183;-68
2021/08/27 04:21:09;;;;;;;;;;;;;;;;;;2102214;27;1195;-68
2021/08/27 04:22:10;;;;;;;;;;;;;;;;;;2108738;27;1910;-69
2021/08/27 04:23:10;;;;;;;;;;;;;;;;;;2110186;27;1311;-69
2021/08/27 04:25:24;;;;;;;;;;;;;;;;;;2098174;27;1279;-69
2021/08/27 04:26:24;;;;;;;;;;;;;;;;;;2097369;28;1095;-68
2021/08/27 04:27:26;;;;;;;;;;;;;;;;;;2095048;28;1064;-69
2021/08/27 04:28:26;;;;;;;;;;;;;;;;;;2093339;28;3981;-69
2021/08/27 04:29:27;;;;;;;;;;;;;;;;;;2093797;28;1212;-67
2021/08/27 04:30:27;;;;;;;;;;;;;;;;;;2088071;28;4223;-68
2021/08/27 04:31:29;;;;;;;;;;;;;;;;;;2096612;28;1079;-69
2021/08/27 04:32:29;;;;;;;;;;;;;;;;;;2097802;28;1039;-67
2021/08/27 04:34:43;;;;;;;;;;;;;;;;;;2106747;27;1793;-69
2021/08/27 04:35:44;;;;;;;;;;;;;;;;;;2100843;28;1587;-67
2021/08/27 04:36:45;;;;;;;;;;;;;;;;;;2106445;28;1051;-69
2021/08/27 04:37:46;;;;;;;;;;;;;;;;;;2106969;28;1126;-69
2021/08/27 04:38:46;;;;;;;;;;;;;;;;;;2102168;27;1028;-69
2021/08/27 04:39:47;;;;;;;;;;;;;;;;;;2106460;27;999;-69
2021/08/27 04:40:48;;;;;;;;;;;;;;;;;;2101717;27;4179;-67
2021/08/27 04:41:48;;;;;;;;;;;;;;;;;;2102705;27;1491;-68
2021/08/27 04:42:49;;;;;;;;;;;;;;;;;;2104569;28;3126;-68
2021/08/27 04:43:50;;;;;;;;;;;;;;;;;;2103432;28;4414;-67
2021/08/27 04:44:51;;;;;;;;;;;;;;;;;;2101345;27;4466;-69
2021/08/27 04:45:51;;;;;;;;;;;;;;;;;;2105985;28;4003;-68
2021/08/27 04:46:53;;;;;;;;;;;;;;;;;;2098476;27;4587;-69
2021/08/27 04:47:53;;;;;;;;;;;;;;;;;;2098886;27;4700;-67
2021/08/27 04:48:59;;;;;;;;;;;;;;;;;;2101694;27;4375;-67
2021/08/27 04:50:00;;;;;;;;;;;;;;;;;;2098517;27;3794;-68
2021/08/27 04:51:01;;;;;;;;;;;;;;;;;;2098093;27;3594;-68
2021/08/27 04:52:01;;;;;;;;;;;;;;;;;;2106278;28;4460;-69
2021/08/27 04:53:02;;;;;;;;;;;;;;;;;;2101724;27;4184;-69
2021/08/27 04:54:02;;;;;;;;;;;;;;;;;;2104033;27;1909;-67
2021/08/27 04:55:04;;;;;;;;;;;;;;;;;;2098888;27;1269;-69
2021/08/27 04:56:04;;;;;;;;;;;;;;;;;;2107141;28;1268;-68
2021/08/27 04:57:05;;;;;;;;;;;;;;;;;;2105449;28;4051;-68
2021/08/27 04:58:05;;;;;;;;;;;;;;;;;;2107248;28;1197;-69
2021/08/27 04:59:06;;;;;;;;;;;;;;;;;;2102660;27;4163;-69
2021/08/27 05:00:08;;;;;;;;;;;;;;;;;;2101813;27;4060;-67
2021/08/27 05:01:09;;;;;;;;;;;;;;;;;;2091948;27;1132;-68
2021/08/27 05:02:09;;;;;;;;;;;;;;;;;;2104154;28;1033;-67
2021/08/27 05:03:10;;;;;;;;;;;;;;;;;;2097666;28;1226;-69
2021/08/27 05:04:10;;;;;;;;;;;;;;;;;;2100874;27;1103;-68
2021/08/27 05:05:12;;;;;;;;;;;;;;;;;;2101379;27;1024;-67
2021/08/27 05:06:13;;;;;;;;;;;;;;;;;;2100723;27;1244;-68
2021/08/27 05:07:13;;;;;;;;;;;;;;;;;;2105306;27;1254;-68
2021/08/27 05:08:14;;;;;;;;;;;;;;;;;;2099618;27;1397;-68
2021/08/27 05:09:17;;;;;;;;;;;;;;;;;;2101465;27;3803;-68
2021/08/27 05:10:18;;;;;;;;;;;;;;;;;;2094661;27;3902;-67
2021/08/27 05:11:18;;;;;;;;;;;;;;;;;;2094440;28;4445;-69
2021/08/27 05:12:19;;;;;;;;;;;;;;;;;;2105307;28;4401;-69
2021/08/27 05:13:19;;;;;;;;;;;;;;;;;;2100400;27;1022;-67
2021/08/27 05:14:21;;;;;;;;;;;;;;;;;;2105428;27;1925;-69
2021/08/27 05:15:21;;;;;;;;;;;;;;;;;;2102151;27;1084;-67
2021/08/27 05:16:22;;;;;;;;;;;;;;;;;;2105515;27;4036;-69
2021/08/27 05:17:22;;;;;;;;;;;;;;;;;;2105581;27;4788;-68
2021/08/27 05:18:23;;;;;;;;;;;;;;;;;;2105691;28;4410;-68
2021/08/27 05:19:23;;;;;;;;;;;;;;;;;;2101998;27;1361;-69
2021/08/27 05:20:25;;;;;;;;;;;;;;;;;;2096477;27;2175;-69
2021/08/27 05:21:25;;;;;;;;;;;;;;;;;;2105449;27;1045;-67
2021/08/27 05:22:27;;;;;;;;;;;;;;;;;;2105820;27;1084;-68
2021/08/27 05:23:28;;;;;;;;;;;;;;;;;;2103835;27;4414;-68
2021/08/27 05:25:44;;;;;;;;;;;;;;;;;;2104999;27;1484;-69
2021/08/27 05:26:44;;;;;;;;;;;;;;;;;;2104521;28;4319;-68
2021/08/27 05:27:45;;;;;;;;;;;;;;;;;;2104935;28;4361;-68
2021/08/27 05:28:46;;;;;;;;;;;;;;;;;;2104573;27;1042;-68
2021/08/27 05:29:49;;;;;;;;;;;;;;;;;;2099914;27;1840;-69
2021/08/27 05:30:49;;;;;;;;;;;;;;;;;;2099474;27;4002;-69
2021/08/27 05:31:50;;;;;;;;;;;;;;;;;;2102703;28;4678;-69
2021/08/27 05:32:52;;;;;;;;;;;;;;;;;;2103381;27;4187;-67
2021/08/27 05:33:53;;;;;;;;;;;;;;;;;;2098655;27;1426;-69
2021/08/27 05:34:54;;;;;;;;;;;;;;;;;;2102780;27;1902;-69
2021/08/27 05:35:55;;;;;;;;;;;;;;;;;;2098227;28;3022;-69
2021/08/27 05:36:55;;;;;;;;;;;;;;;;;;2103071;28;4176;-69
2021/08/27 05:37:56;;;;;;;;;;;;;;;;;;2107032;27;1403;-69
2021/08/27 05:38:56;;;;;;;;;;;;;;;;;;2100456;27;4268;-69
2021/08/27 05:39:57;;;;;;;;;;;;;;;;;;2104251;27;2225;-68
2021/08/27 05:40:57;;;;;;;;;;;;;;;;;;2097082;27;4603;-68
2021/08/27 05:41:58;;;;;;;;;;;;;;;;;;2102858;27;4393;-67
2021/08/27 05:42:58;;;;;;;;;;;;;;;;;;2097699;27;1484;-69
2021/08/27 05:44:00;;;;;;;;;;;;;;;;;;2097594;27;4517;-69
2021/08/27 05:45:00;;;;;;;;;;;;;;;;;;2098867;27;4465;-67
2021/08/27 05:46:01;;;;;;;;;;;;;;;;;;2099871;28;1279;-68
2021/08/27 05:47:01;;;;;;;;;;;;;;;;;;2097692;28;4426;-67
2021/08/27 05:48:02;;;;;;;;;;;;;;;;;;2099171;28;4291;-67
2021/08/27 05:49:02;;;;;;;;;;;;;;;;;;2090828;27;1182;-69
2021/08/27 05:50:10;;;;;;;;;;;;;;;;;;2095853;28;1954;-69
2021/08/27 05:51:10;;;;;;;;;;;;;;;;;;2097445;28;1072;-68
2021/08/27 05:52:11;;;;;;;;;;;;;;;;;;2101548;28;1021;-69
2021/08/27 05:53:12;;;;;;;;;;;;;;;;;;2096614;28;1336;-67
2021/08/27 05:54:14;;;;;;;;;;;;;;;;;;2098251;27;1983;-69
2021/08/27 05:55:15;;;;;;;;;;;;;;;;;;2098637;28;1176;-69
2021/08/27 05:56:15;;;;;;;;;;;;;;;;;;2098587;28;1324;-68
2021/08/27 05:57:16;;;;;;;;;;;;;;;;;;2098514;27;3901;-67
2021/08/27 05:58:17;;;;;;;;;;;;;;;;;;2093343;27;1436;-69
2021/08/27 05:59:18;;;;;;;;;;;;;;;;;;2098398;28;2290;-69
2021/08/27 06:00:18;;;;;;;;;;;;;;;;;;2094386;27;3794;-67
2021/08/27 06:01:19;;;;;;;;;;;;;;;;;;2094476;27;2095;-67
2021/08/27 06:02:20;;;;;;;;;;;;;;;;;;2096224;28;1110;-67
2021/08/27 06:03:21;;;;;;;;;;;;;;;;;;2101070;27;1276;-67
2021/08/27 06:04:21;;;;;;;;;;;;;;;;;;2108900;27;1628;-69
2021/08/27 06:05:22;;;;;;;;;;;;;;;;;;2104384;27;1131;-67
2021/08/27 06:06:22;;;;;;;;;;;;;;;;;;2107348;27;1424;-67
2021/08/27 06:07:23;;;;;;;;;;;;;;;;;;2107866;27;4216;-68
2021/08/27 06:08:23;;;;;;;;;;;;;;;;;;2107263;27;1382;-69
2021/08/27 06:09:24;;;;;;;;;;;;;;;;;;2102930;27;1371;-68
2021/08/27 06:10:39;;;;;;;;;;;;;;;;;;2097828;27;3724;-68
2021/08/27 06:11:39;;;;;;;;;;;;;;;;;;2107015;27;1120;-67
2021/08/27 06:12:41;;;;;;;;;;;;;;;;;;2104851;27;1017;-68
2021/08/27 06:13:41;;;;;;;;;;;;;;;;;;2098355;27;1083;-67
2021/08/27 06:14:43;;;;;;;;;;;;;;;;;;2106227;27;1937;-69
2021/08/27 06:15:44;;;;;;;;;;;;;;;;;;2107303;27;1423;-69
2021/08/27 06:16:46;;;;;;;;;;;;;;;;;;2104579;27;4359;-68
2021/08/27 06:17:46;;;;;;;;;;;;;;;;;;2105850;27;1375;-68
2021/08/27 06:21:13;;;;;;;;;;;;;;;;;;2083327;27;1796;-68
2021/08/27 06:22:14;;;;;;;;;;;;;;;;;;2080757;28;1112;-67
2021/08/27 06:23:14;;;;;;;;;;;;;;;;;;2080514;28;1084;-66
2021/08/27 06:24:16;;;;;;;;;;;;;;;;;;2081745;28;1014;-68
2021/08/27 06:25:18;;;;;;;;;;;;;;;;;;2080408;28;3754;-68
2021/08/27 06:26:19;;;;;;;;;;;;;;;;;;2080298;28;1165;-68
2021/08/27 06:27:19;;;;;;;;;;;;;;;;;;2081414;28;1169;-67
2021/08/27 06:28:20;;;;;;;;;;;;;;;;;;2080561;28;1144;-67
2021/08/27 06:29:20;;;;;;;;;;;;;;;;;;2080678;28;1025;-67
2021/08/27 06:31:36;;;;;;;;;;;;;;;;;;2080787;28;1464;-67
2021/08/27 06:32:37;;;;;;;;;;;;;;;;;;2080307;28;1253;-68
2021/08/27 06:33:44;;;;;;;;;;;;;;;;;;2078270;28;4404;-67
2021/08/27 06:34:44;;;;;;;;;;;;;;;;;;2080145;28;4615;-67
2021/08/27 06:35:45;;;;;;;;;;;;;;;;;;2079838;28;3754;-67
2021/08/27 06:36:46;;;;;;;;;;;;;;;;;;2080862;28;1116;-69
2021/08/27 06:41:36;;;;;;;;;;;;;;;;;;2104528;27;1602;-67
2021/08/27 06:42:36;;;;;;;;;;;;;;;;;;2106892;27;1310;-67
2021/08/27 06:43:37;;;;;;;;;;;;;;;;;;2105314;27;1247;-67
2021/08/27 06:44:39;;;;;;;;;;;;;;;;;;2103845;27;1177;-67
2021/08/27 06:45:39;;;;;;;;;;;;;;;;;;2103304;27;3725;-67
2021/08/27 06:46:43;;;;;;;;;;;;;;;;;;2097278;27;1500;-67
2021/08/27 06:47:43;;;;;;;;;;;;;;;;;;2101606;27;1637;-67
2021/08/27 06:48:44;;;;;;;;;;;;;;;;;;2103687;27;4353;-67
2021/08/27 06:49:45;;;;;;;;;;;;;;;;;;2104793;27;4568;-69
2021/08/27 06:50:46;;;;;;;;;;;;;;;;;;2097346;27;3882;-68
2021/08/27 06:51:46;;;;;;;;;;;;;;;;;;2104541;27;1044;-67
2021/08/27 06:52:47;;;;;;;;;;;;;;;;;;2106486;27;1584;-68
2021/08/27 06:53:53;;;;;;;;;;;;;;;;;;2105407;27;1044;-69
2021/08/27 06:54:53;;;;;;;;;;;;;;;;;;2095303;27;4163;-67
2021/08/27 06:55:54;;;;;;;;;;;;;;;;;;2104274;27;4202;-67
2021/08/27 06:56:54;;;;;;;;;;;;;;;;;;2100205;27;4326;-69
2021/08/27 06:57:59;;;;;;;;;;;;;;;;;;2102189;27;2975;-69
2021/08/27 06:58:59;;;;;;;;;;;;;;;;;;2098188;28;3851;-68
2021/08/27 07:00:00;;;;;;;;;;;;;;;;;;2100899;27;4084;-68
2021/08/27 07:01:00;;;;;;;;;;;;;;;;;;2100652;27;4146;-68
2021/08/27 07:02:02;;;;;;;;;;;;;;;;;;2105135;27;1082;-69
2021/08/27 07:03:02;;;;;;;;;;;;;;;;;;2099870;27;1394;-68
2021/08/27 07:04:03;;;;;;;;;;;;;;;;;;2104236;27;4208;-69
2021/08/27 07:05:03;;;;;;;;;;;;;;;;;;2099209;28;3200;-67
2021/08/27 07:06:04;;;;;;;;;;;;;;;;;;2104627;27;1321;-67
2021/08/27 07:07:04;;;;;;;;;;;;;;;;;;2106597;27;1176;-69
2021/08/27 07:08:05;;;;;;;;;;;;;;;;;;2103874;27;1068;-69
2021/08/27 07:09:07;;;;;;;;;;;;;;;;;;2100045;28;1831;-67
2021/08/27 07:10:07;;;;;;;;;;;;;;;;;;2097490;27;4208;-66
2021/08/27 07:11:08;;;;;;;;;;;;;;;;;;2094484;27;4090;-68
2021/08/27 07:12:11;;;;;;;;;;;;;;;;;;2105835;27;1176;-67
2021/08/27 07:13:12;;;;;;;;;;;;;;;;;;2100753;28;4470;-67
2021/08/27 07:14:15;;;;;;;;;;;;;;;;;;2106345;27;4430;-68
2021/08/27 07:15:15;;;;;;;;;;;;;;;;;;2099734;27;4092;-67
2021/08/27 07:16:16;;;;;;;;;;;;;;;;;;2102598;27;3051;-68
2021/08/27 07:17:16;;;;;;;;;;;;;;;;;;2105497;27;1914;-69
2021/08/27 07:18:18;;;;;;;;;;;;;;;;;;2104182;27;4239;-67
2021/08/27 07:19:18;;;;;;;;;;;;;;;;;;2103359;27;3406;-67
2021/08/27 07:20:20;;;;;;;;;;;;;;;;;;2097509;27;4257;-68
2021/08/27 07:21:21;;;;;;;;;;;;;;;;;;2098290;27;4818;-67